createdAt,value
2022-11-16T00:00:36.436Z,10.60
2022-11-16T00:02:09.756Z,10.60
2022-11-16T00:03:42.795Z,10.60
2022-11-16T00:05:16.537Z,10.60
2022-11-16T00:06:51.026Z,10.60
2022-11-16T00:08:23.606Z,10.60
2022-11-16T00:09:56.932Z,10.60
2022-11-16T00:11:30.181Z,10.60
2022-11-16T00:13:03.266Z,10.60
2022-11-16T00:14:38.736Z,10.60
2022-11-16T00:16:18.489Z,10.60
2022-11-16T00:17:51.592Z,10.60
2022-11-16T00:19:26.193Z,10.60
2022-11-16T00:20:58.895Z,10.60
2022-11-16T00:22:32.056Z,10.60
2022-11-16T00:24:06.352Z,10.60
2022-11-16T00:25:40.564Z,10.60
2022-11-16T00:27:13.977Z,10.60
2022-11-16T00:28:47.563Z,10.60
2022-11-16T00:30:22.938Z,10.60
2022-11-16T00:31:56.551Z,10.60
2022-11-16T00:33:29.150Z,10.60
2022-11-16T00:35:02.610Z,10.60
2022-11-16T00:36:35.716Z,10.60
2022-11-16T00:38:09.326Z,10.60
2022-11-16T00:39:42.661Z,10.60
2022-11-16T00:41:19.160Z,10.60
2022-11-16T00:42:52.470Z,10.60
2022-11-16T00:44:25.623Z,10.60
2022-11-16T00:45:59.320Z,10.60
2022-11-16T00:47:32.645Z,10.60
2022-11-16T00:49:06.530Z,10.60
2022-11-16T00:50:40.447Z,10.60
2022-11-16T00:52:14.158Z,10.60
2022-11-16T00:53:46.323Z,10.60
2022-11-16T00:55:19.580Z,10.60
2022-11-16T00:56:53.152Z,10.60
2022-11-16T00:58:25.365Z,10.60
2022-11-16T01:00:09.061Z,10.60
2022-11-16T01:01:43.586Z,10.60
2022-11-16T01:03:16.214Z,10.60
2022-11-16T01:04:49.333Z,10.60
2022-11-16T01:06:23.527Z,10.60
2022-11-16T01:07:57.170Z,10.60
2022-11-16T01:09:31.244Z,10.60
2022-11-16T01:11:19.140Z,10.60
2022-11-16T01:12:54.139Z,10.70
2022-11-16T01:14:26.369Z,10.60
2022-11-16T01:15:59.482Z,10.70
2022-11-16T01:17:34.110Z,10.60
2022-11-16T01:19:07.586Z,10.70
2022-11-16T01:20:42.313Z,10.70
2022-11-16T01:22:15.507Z,10.60
2022-11-16T01:23:47.929Z,10.60
2022-11-16T01:25:21.871Z,10.70
2022-11-16T01:26:56.852Z,10.70
2022-11-16T01:28:31.164Z,10.70
2022-11-16T01:30:05.892Z,10.70
2022-11-16T01:31:38.741Z,10.70
2022-11-16T01:33:13.552Z,10.70
2022-11-16T01:34:46.731Z,10.70
2022-11-16T01:36:29.856Z,10.70
2022-11-16T01:38:05.522Z,10.70
2022-11-16T01:39:40.499Z,10.70
2022-11-16T01:41:16.495Z,10.70
2022-11-16T01:42:53.464Z,10.70
2022-11-16T01:45:00.780Z,10.70
2022-11-16T01:46:34.224Z,10.70
2022-11-16T01:48:08.935Z,10.70
2022-11-16T01:49:48.461Z,10.70
2022-11-16T01:51:24.525Z,10.70
2022-11-16T01:53:03.339Z,10.70
2022-11-16T01:54:47.235Z,10.70
2022-11-16T01:56:22.547Z,10.70
2022-11-16T01:58:13.093Z,10.70
2022-11-16T01:59:50.743Z,10.70
2022-11-16T02:01:26.764Z,10.80
2022-11-16T02:03:03.481Z,10.80
2022-11-16T02:04:53.718Z,10.80
2022-11-16T02:06:58.838Z,10.80
2022-11-16T02:09:10.596Z,10.80
2022-11-16T02:11:19.543Z,10.80
2022-11-16T02:13:21.872Z,10.80
2022-11-16T02:15:11.959Z,10.70
2022-11-16T02:16:58.715Z,10.80
2022-11-16T02:18:51.479Z,10.80
2022-11-16T02:21:04.580Z,10.80
2022-11-16T02:23:00.567Z,10.80
2022-11-16T02:25:01.198Z,10.80
2022-11-16T02:27:13.733Z,10.80
2022-11-16T02:29:06.805Z,10.80
2022-11-16T02:30:47.940Z,10.80
2022-11-16T02:32:27.986Z,10.80
2022-11-16T02:34:05.033Z,10.80
2022-11-16T02:35:44.873Z,10.80
2022-11-16T02:37:23.801Z,10.80
2022-11-16T02:39:03.603Z,10.70
2022-11-16T02:40:43.810Z,10.80
2022-11-16T02:42:22.759Z,10.80
2022-11-16T02:44:04.052Z,10.80
2022-11-16T02:45:44.882Z,10.80
2022-11-16T02:47:21.361Z,10.80
2022-11-16T02:49:03.552Z,10.80
2022-11-16T02:50:40.074Z,10.80
2022-11-16T02:52:16.314Z,10.80
2022-11-16T02:54:03.339Z,10.80
2022-11-16T02:55:38.879Z,10.80
2022-11-16T02:57:40.928Z,10.80
2022-11-16T02:59:17.948Z,10.80
2022-11-16T03:01:03.059Z,10.70
2022-11-16T03:02:46.208Z,10.80
2022-11-16T03:04:27.737Z,10.80
2022-11-16T03:06:08.635Z,10.80
2022-11-16T03:08:06.316Z,10.80
2022-11-16T03:09:42.674Z,10.80
2022-11-16T03:11:33.472Z,10.80
2022-11-16T03:13:09.597Z,10.80
2022-11-16T03:14:49.749Z,10.80
2022-11-16T03:16:32.255Z,10.80
2022-11-16T03:18:07.871Z,10.80
2022-11-16T03:19:46.547Z,10.80
2022-11-16T03:21:28.101Z,10.80
2022-11-16T03:23:05.876Z,10.80
2022-11-16T03:24:39.815Z,10.80
2022-11-16T03:26:17.613Z,10.80
2022-11-16T03:28:00.543Z,10.80
2022-11-16T03:29:42.159Z,10.80
2022-11-16T03:31:29.238Z,10.80
2022-11-16T03:33:11.302Z,10.90
2022-11-16T03:34:57.089Z,10.80
2022-11-16T03:36:33.913Z,10.80
2022-11-16T03:38:10.567Z,10.90
2022-11-16T03:39:49.202Z,10.90
2022-11-16T03:41:24.719Z,10.80
2022-11-16T03:43:04.021Z,10.80
2022-11-16T03:44:39.863Z,10.90
2022-11-16T03:46:16.166Z,10.80
2022-11-16T03:47:50.740Z,10.90
2022-11-16T03:49:24.698Z,10.80
2022-11-16T03:50:59.909Z,10.80
2022-11-16T03:52:37.278Z,10.80
2022-11-16T03:54:10.476Z,10.80
2022-11-16T03:55:49.738Z,10.80
2022-11-16T03:57:23.391Z,10.80
2022-11-16T03:59:01.684Z,10.80
2022-11-16T04:00:36.428Z,10.80
2022-11-16T04:02:14.984Z,10.80
2022-11-16T04:03:50.695Z,10.80
2022-11-16T04:05:43.201Z,10.80
2022-11-16T04:07:34.140Z,10.80
2022-11-16T04:09:25.249Z,10.80
2022-11-16T04:11:15.998Z,10.80
2022-11-16T04:13:07.419Z,10.80
2022-11-16T04:14:59.136Z,10.80
2022-11-16T04:16:52.653Z,10.80
2022-11-16T04:18:45.272Z,10.80
2022-11-16T04:20:48.637Z,10.80
2022-11-16T04:22:45.321Z,10.80
2022-11-16T04:24:24.884Z,10.80
2022-11-16T04:25:58.737Z,10.80
2022-11-16T04:27:49.745Z,10.70
2022-11-16T04:29:24.188Z,10.70
2022-11-16T04:31:27.531Z,10.80
2022-11-16T04:33:25.360Z,10.80
2022-11-16T04:35:16.293Z,10.70
2022-11-16T04:37:10.218Z,10.80
2022-11-16T04:38:44.305Z,10.70
2022-11-16T04:40:18.522Z,10.70
2022-11-16T04:42:09.242Z,10.70
2022-11-16T04:43:42.416Z,10.70
2022-11-16T04:45:33.305Z,10.70
2022-11-16T04:47:08.726Z,10.70
2022-11-16T04:48:44.742Z,10.70
2022-11-16T04:50:18.581Z,10.70
2022-11-16T04:51:53.364Z,10.70
2022-11-16T04:53:27.907Z,10.70
2022-11-16T04:55:10.596Z,10.70
2022-11-16T04:56:44.072Z,10.70
2022-11-16T04:58:17.597Z,10.70
2022-11-16T04:59:51.713Z,10.70
2022-11-16T05:01:45.212Z,10.70
2022-11-16T05:03:19.287Z,10.70
2022-11-16T05:04:51.581Z,10.70
2022-11-16T05:06:26.048Z,10.70
2022-11-16T05:08:01.848Z,10.70
2022-11-16T05:09:41.341Z,10.70
2022-11-16T05:11:14.567Z,10.70
2022-11-16T05:12:48.310Z,10.70
2022-11-16T05:14:22.690Z,10.70
2022-11-16T05:15:56.234Z,10.70
2022-11-16T05:17:29.753Z,10.70
2022-11-16T05:19:23.331Z,10.70
2022-11-16T05:21:02.671Z,10.70
2022-11-16T05:22:41.778Z,10.70
2022-11-16T05:24:33.760Z,10.70
2022-11-16T05:26:08.500Z,10.60
2022-11-16T05:27:41.929Z,10.70
2022-11-16T05:29:15.114Z,10.70
2022-11-16T05:30:48.521Z,10.60
2022-11-16T05:32:28.630Z,10.60
2022-11-16T05:34:06.730Z,10.60
2022-11-16T05:35:40.368Z,10.60
2022-11-16T05:37:15.115Z,10.60
2022-11-16T05:38:52.727Z,10.60
2022-11-16T05:40:33.581Z,10.60
2022-11-16T05:42:08.417Z,10.60
2022-11-16T05:43:41.662Z,10.60
2022-11-16T05:45:21.313Z,10.60
2022-11-16T05:46:56.246Z,10.60
2022-11-16T05:48:28.869Z,10.50
2022-11-16T05:50:02.350Z,10.50
2022-11-16T05:51:41.046Z,10.50
2022-11-16T05:53:14.425Z,10.50
2022-11-16T05:54:48.192Z,10.50
2022-11-16T05:56:23.160Z,10.50
2022-11-16T05:57:58.287Z,10.50
2022-11-16T05:59:31.696Z,10.50
2022-11-16T06:01:06.686Z,10.50
2022-11-16T06:02:40.185Z,10.50
2022-11-16T06:04:15.165Z,10.50
2022-11-16T06:05:48.731Z,10.50
2022-11-16T06:07:23.754Z,10.50
2022-11-16T06:08:57.477Z,10.50
2022-11-16T06:10:33.023Z,10.50
2022-11-16T06:12:09.231Z,10.50
2022-11-16T06:13:42.559Z,10.50
2022-11-16T06:15:16.762Z,10.50
2022-11-16T06:16:49.960Z,10.50
2022-11-16T06:18:23.292Z,10.40
2022-11-16T06:19:56.939Z,10.50
2022-11-16T06:21:30.537Z,10.50
2022-11-16T06:23:04.036Z,10.50
2022-11-16T06:24:38.219Z,10.40
2022-11-16T06:26:11.025Z,10.40
2022-11-16T06:27:45.757Z,10.50
2022-11-16T06:29:22.332Z,10.40
2022-11-16T06:30:58.552Z,10.40
2022-11-16T06:32:33.108Z,10.40
2022-11-16T06:34:06.623Z,10.40
2022-11-16T06:35:40.182Z,10.40
2022-11-16T06:37:14.334Z,10.40
2022-11-16T06:38:47.571Z,10.40
2022-11-16T06:40:20.697Z,10.40
2022-11-16T06:41:54.010Z,10.40
2022-11-16T06:43:28.800Z,10.40
2022-11-16T06:45:02.404Z,10.40
2022-11-16T06:46:42.606Z,10.40
2022-11-16T06:48:15.768Z,10.40
2022-11-16T06:49:49.597Z,10.40
2022-11-16T06:51:27.549Z,10.40
2022-11-16T06:53:00.856Z,10.40
2022-11-16T06:54:35.217Z,10.40
2022-11-16T06:56:11.384Z,10.40
2022-11-16T06:57:49.509Z,10.40
2022-11-16T06:59:24.988Z,10.40
2022-11-16T07:00:58.633Z,10.40
2022-11-16T07:02:31.992Z,10.40
2022-11-16T07:04:11.748Z,10.40
2022-11-16T07:05:46.519Z,10.40
2022-11-16T07:07:22.870Z,10.40
2022-11-16T07:08:56.982Z,10.40
2022-11-16T07:10:34.536Z,10.30
2022-11-16T07:12:08.313Z,10.40
2022-11-16T07:13:45.427Z,10.40
2022-11-16T07:15:21.513Z,10.40
2022-11-16T07:16:59.317Z,10.40
2022-11-16T07:18:35.479Z,10.30
2022-11-16T07:20:11.890Z,10.30
2022-11-16T07:21:45.777Z,10.30
2022-11-16T07:23:23.572Z,10.30
2022-11-16T07:24:57.254Z,10.30
2022-11-16T07:26:31.130Z,10.30
2022-11-16T07:28:10.011Z,10.20
2022-11-16T07:29:43.367Z,10.20
2022-11-16T07:31:31.550Z,10.20
2022-11-16T07:33:24.540Z,10.20
2022-11-16T07:35:17.796Z,10.10
2022-11-16T07:36:51.329Z,10.10
2022-11-16T07:38:24.644Z,10.10
2022-11-16T07:39:57.781Z,10.10
2022-11-16T07:41:31.922Z,10.10
2022-11-16T07:43:17.125Z,10.10
2022-11-16T07:45:11.958Z,10.00
2022-11-16T07:46:51.438Z,10.00
2022-11-16T07:48:24.769Z,10.00
2022-11-16T07:50:19.110Z,9.90
2022-11-16T07:51:52.721Z,9.90
2022-11-16T07:53:46.656Z,9.90
2022-11-16T07:55:20.323Z,9.90
2022-11-16T07:56:55.923Z,9.80
2022-11-16T07:58:31.357Z,9.80
2022-11-16T08:00:06.348Z,9.80
2022-11-16T08:02:00.039Z,9.80
2022-11-16T08:03:36.656Z,9.70
2022-11-16T08:05:11.753Z,9.70
2022-11-16T08:06:46.813Z,9.70
2022-11-16T08:08:20.131Z,9.60
2022-11-16T08:09:53.402Z,9.60
2022-11-16T08:11:28.324Z,9.60
2022-11-16T08:13:01.851Z,9.60
2022-11-16T08:14:35.155Z,9.50
2022-11-16T08:16:13.150Z,9.50
2022-11-16T08:17:48.050Z,9.50
2022-11-16T08:19:21.194Z,9.50
2022-11-16T08:20:54.313Z,9.50
2022-11-16T08:22:28.915Z,9.40
2022-11-16T08:24:02.343Z,9.40
2022-11-16T08:25:36.921Z,9.40
2022-11-16T08:27:10.112Z,9.40
2022-11-16T08:28:45.880Z,9.40
2022-11-16T08:30:19.198Z,9.40
2022-11-16T08:31:52.499Z,9.30
2022-11-16T08:33:30.516Z,9.30
2022-11-16T08:35:04.965Z,9.30
2022-11-16T08:36:38.267Z,9.30
2022-11-16T08:38:12.337Z,9.30
2022-11-16T08:39:46.125Z,9.30
2022-11-16T08:41:21.156Z,9.30
2022-11-16T08:42:57.004Z,9.20
2022-11-16T08:44:30.205Z,9.30
2022-11-16T08:46:07.486Z,9.20
2022-11-16T08:47:40.674Z,9.30
2022-11-16T08:49:16.330Z,9.30
2022-11-16T08:51:15.929Z,9.30
2022-11-16T08:52:42.982Z,9.30
2022-11-16T08:54:17.006Z,9.30
2022-11-16T08:55:50.330Z,9.40
2022-11-16T08:57:24.436Z,9.30
2022-11-16T08:59:02.897Z,9.30
2022-11-16T09:00:36.455Z,9.30
2022-11-16T09:02:10.791Z,9.30
2022-11-16T09:03:44.793Z,9.30
2022-11-16T09:05:19.497Z,9.30
2022-11-16T09:06:54.741Z,9.30
2022-11-16T09:08:28.227Z,9.30
2022-11-16T09:10:01.895Z,9.40
2022-11-16T09:11:35.229Z,9.40
2022-11-16T09:13:08.346Z,9.40
2022-11-16T09:14:41.645Z,9.40
2022-11-16T09:16:16.847Z,9.50
2022-11-16T09:17:54.702Z,9.50
2022-11-16T09:19:27.942Z,9.50
2022-11-16T09:21:02.559Z,9.50
2022-11-16T09:22:36.011Z,9.60
2022-11-16T09:24:10.338Z,9.60
2022-11-16T09:25:44.900Z,9.60
2022-11-16T09:27:18.205Z,9.70
2022-11-16T09:28:57.912Z,9.80
2022-11-16T09:30:31.353Z,9.80
2022-11-16T09:32:05.030Z,9.80
2022-11-16T09:33:38.681Z,9.90
2022-11-16T09:35:12.023Z,9.90
2022-11-16T09:36:46.443Z,10.00
2022-11-16T09:38:26.950Z,10.10
2022-11-16T09:40:03.610Z,10.10
2022-11-16T09:41:59.116Z,10.10
2022-11-16T09:43:46.526Z,10.20
2022-11-16T09:45:28.156Z,10.20
2022-11-16T09:47:03.020Z,10.30
2022-11-16T09:48:39.228Z,10.30
2022-11-16T09:50:30.884Z,10.40
2022-11-16T09:52:13.901Z,10.50
2022-11-16T09:53:55.044Z,10.50
2022-11-16T09:55:36.872Z,10.60
2022-11-16T09:57:15.504Z,10.60
2022-11-16T09:58:57.288Z,10.70
2022-11-16T10:00:32.005Z,10.70
2022-11-16T10:02:22.771Z,10.80
2022-11-16T10:04:06.274Z,10.80
2022-11-16T10:05:49.698Z,10.90
2022-11-16T10:07:32.652Z,10.80
2022-11-16T10:09:06.452Z,10.90
2022-11-16T10:10:50.360Z,10.90
2022-11-16T10:12:30.968Z,10.90
2022-11-16T10:14:37.864Z,10.90
2022-11-16T10:16:22.319Z,10.90
2022-11-16T10:18:20.846Z,10.90
2022-11-16T10:19:57.876Z,10.90
2022-11-16T10:21:50.711Z,10.90
2022-11-16T10:23:41.011Z,10.90
2022-11-16T10:25:23.059Z,10.90
2022-11-16T10:27:22.144Z,10.90
2022-11-16T10:29:15.184Z,11.00
2022-11-16T10:30:58.942Z,11.00
2022-11-16T10:32:38.136Z,11.00
2022-11-16T10:34:20.893Z,11.00
2022-11-16T10:35:54.647Z,11.10
2022-11-16T10:37:36.456Z,11.10
2022-11-16T10:39:16.449Z,11.10
2022-11-16T10:40:54.204Z,11.20
2022-11-16T10:42:39.197Z,11.30
2022-11-16T10:44:25.771Z,11.30
2022-11-16T10:46:06.815Z,11.40
2022-11-16T10:47:47.704Z,11.50
2022-11-16T10:49:32.766Z,11.50
2022-11-16T10:51:08.328Z,11.60
2022-11-16T10:52:40.559Z,11.60
2022-11-16T10:54:16.402Z,11.70
2022-11-16T10:56:12.286Z,11.70
2022-11-16T10:57:56.871Z,11.80
2022-11-16T10:59:41.721Z,11.90
2022-11-16T11:01:14.999Z,11.90
2022-11-16T11:02:49.767Z,12.00
2022-11-16T11:04:25.870Z,12.00
2022-11-16T11:05:59.684Z,12.00
2022-11-16T11:07:37.769Z,12.10
2022-11-16T11:09:30.300Z,12.10
2022-11-16T11:11:21.891Z,12.20
2022-11-16T11:13:26.209Z,12.20
2022-11-16T11:15:07.632Z,12.20
2022-11-16T11:16:41.525Z,12.30
2022-11-16T11:18:27.605Z,12.30
2022-11-16T11:20:03.946Z,12.30
2022-11-16T11:21:37.434Z,12.30
2022-11-16T11:23:17.140Z,12.30
2022-11-16T11:24:52.247Z,12.30
2022-11-16T11:26:36.473Z,12.30
2022-11-16T11:28:24.184Z,12.30
2022-11-16T11:30:00.056Z,12.30
2022-11-16T11:31:39.787Z,12.30
2022-11-16T11:33:17.890Z,12.30
2022-11-16T11:34:55.709Z,12.20
2022-11-16T11:36:38.408Z,12.20
2022-11-16T11:38:16.517Z,12.20
2022-11-16T11:40:19.226Z,12.20
2022-11-16T11:42:05.153Z,12.20
2022-11-16T11:43:38.476Z,12.20
2022-11-16T11:45:16.279Z,12.20
2022-11-16T11:47:42.443Z,12.10
2022-11-16T11:48:59.918Z,12.20
2022-11-16T11:50:45.512Z,12.20
2022-11-16T11:52:26.602Z,12.10
2022-11-16T11:54:02.335Z,12.10
2022-11-16T11:55:37.040Z,12.20
2022-11-16T11:57:16.427Z,12.10
2022-11-16T11:58:51.551Z,12.10
2022-11-16T12:00:26.045Z,12.10
2022-11-16T12:02:23.489Z,12.10
2022-11-16T12:04:51.256Z,12.10
2022-11-16T12:06:39.854Z,12.10
2022-11-16T12:08:39.073Z,12.10
2022-11-16T12:10:26.531Z,12.00
2022-11-16T12:12:24.014Z,12.00
2022-11-16T12:14:16.996Z,12.00
2022-11-16T12:16:07.665Z,12.00
2022-11-16T12:17:54.967Z,12.00
2022-11-16T12:20:06.442Z,12.00
2022-11-16T12:21:59.398Z,12.00
2022-11-16T12:23:58.888Z,12.00
2022-11-16T12:25:42.240Z,12.00
2022-11-16T12:27:32.665Z,12.00
2022-11-16T12:29:25.929Z,12.00
2022-11-16T12:31:40.755Z,12.00
2022-11-16T12:33:29.671Z,12.00
2022-11-16T12:35:40.237Z,12.00
2022-11-16T12:37:25.194Z,12.00
2022-11-16T12:39:16.817Z,12.00
2022-11-16T12:41:09.255Z,12.00
2022-11-16T12:42:56.505Z,12.00
2022-11-16T12:44:50.898Z,12.00
2022-11-16T12:46:39.756Z,12.00
2022-11-16T12:49:09.299Z,12.00
2022-11-16T12:50:56.471Z,12.00
2022-11-16T12:53:01.155Z,12.10
2022-11-16T12:57:11.087Z,12.00
2022-11-16T12:59:28.824Z,12.00
2022-11-16T13:01:18.278Z,12.00
2022-11-16T13:03:10.030Z,12.00
2022-11-16T13:04:48.027Z,12.00
2022-11-16T13:06:27.465Z,12.00
2022-11-16T13:08:08.293Z,12.00
2022-11-16T13:09:48.847Z,12.00
2022-11-16T13:11:25.667Z,12.00
2022-11-16T13:15:04.728Z,12.00
2022-11-16T13:16:38.090Z,12.00
2022-11-16T13:18:18.617Z,12.00
2022-11-16T13:20:24.594Z,12.00
2022-11-16T13:22:06.123Z,12.00
2022-11-16T13:23:53.865Z,12.00
2022-11-16T13:25:37.794Z,11.90
2022-11-16T13:27:29.750Z,11.90
2022-11-16T13:29:18.154Z,11.90
2022-11-16T13:31:05.993Z,11.90
2022-11-16T13:33:02.024Z,11.90
2022-11-16T13:34:39.924Z,11.90
2022-11-16T13:36:46.281Z,11.80
2022-11-16T13:38:54.000Z,11.90
2022-11-16T13:40:30.679Z,11.90
2022-11-16T13:42:12.689Z,11.90
2022-11-16T13:43:50.343Z,11.80
2022-11-16T13:45:24.626Z,11.80
2022-11-16T13:47:04.477Z,11.80
2022-11-16T13:48:44.717Z,11.80
2022-11-16T13:50:22.496Z,11.80
2022-11-16T13:52:16.856Z,11.80
2022-11-16T13:55:57.678Z,11.80
2022-11-16T13:57:34.773Z,11.80
2022-11-16T13:59:23.775Z,11.80
2022-11-16T14:01:03.100Z,11.70
2022-11-16T14:02:39.766Z,11.80
2022-11-16T14:04:50.759Z,11.70
2022-11-16T14:06:58.371Z,11.80
2022-11-16T14:08:50.051Z,11.80
2022-11-16T14:11:04.132Z,11.80
2022-11-16T14:12:59.865Z,11.80
2022-11-16T14:15:14.241Z,11.80
2022-11-16T14:16:51.570Z,11.80
2022-11-16T14:18:37.107Z,11.80
2022-11-16T14:20:19.634Z,11.80
2022-11-16T14:22:08.302Z,11.80
2022-11-16T14:24:02.487Z,11.70
2022-11-16T14:25:44.954Z,11.80
2022-11-16T14:27:33.924Z,11.80
2022-11-16T14:29:52.336Z,11.80
2022-11-16T14:31:30.372Z,11.70
2022-11-16T14:33:04.209Z,11.70
2022-11-16T14:34:45.212Z,11.70
2022-11-16T14:36:19.037Z,11.70
2022-11-16T14:37:59.383Z,11.70
2022-11-16T14:39:37.693Z,11.70
2022-11-16T14:41:21.806Z,11.70
2022-11-16T14:43:15.805Z,11.70
2022-11-16T14:44:51.921Z,11.70
2022-11-16T14:46:31.752Z,11.70
2022-11-16T14:48:15.742Z,11.70
2022-11-16T14:49:50.044Z,11.70
2022-11-16T14:51:28.142Z,11.70
2022-11-16T14:53:07.379Z,11.70
2022-11-16T14:54:49.154Z,11.70
2022-11-16T14:56:22.650Z,11.70
2022-11-16T14:58:11.355Z,11.70
2022-11-16T14:59:44.595Z,11.70
2022-11-16T15:01:20.185Z,11.70
2022-11-16T15:03:02.097Z,11.70
2022-11-16T15:04:35.916Z,11.70
2022-11-16T15:06:10.440Z,11.70
2022-11-16T15:07:44.720Z,11.70
2022-11-16T15:09:25.241Z,11.70
2022-11-16T15:10:59.062Z,11.70
2022-11-16T15:12:41.329Z,11.60
2022-11-16T15:14:21.032Z,11.60
2022-11-16T15:16:11.623Z,11.60
2022-11-16T15:17:47.479Z,11.60
2022-11-16T15:19:21.588Z,11.60
2022-11-16T15:20:54.862Z,11.60
2022-11-16T15:22:31.028Z,11.50
2022-11-16T15:25:59.969Z,11.50
2022-11-16T15:27:38.769Z,11.40
2022-11-16T15:29:19.212Z,11.40
2022-11-16T15:30:55.380Z,11.40
2022-11-16T15:32:28.772Z,11.40
2022-11-16T15:34:02.916Z,11.30
2022-11-16T15:35:38.174Z,11.30
2022-11-16T15:37:15.049Z,11.30
2022-11-16T15:38:49.223Z,11.20
2022-11-16T15:40:22.543Z,11.20
2022-11-16T15:42:02.291Z,11.20
2022-11-16T15:43:55.450Z,11.20
2022-11-16T15:45:39.225Z,11.20
2022-11-16T15:47:14.917Z,11.20
2022-11-16T15:48:49.024Z,11.10
2022-11-16T15:50:24.495Z,11.10
2022-11-16T15:51:59.251Z,11.10
2022-11-16T15:53:37.652Z,11.10
2022-11-16T15:55:40.482Z,11.00
2022-11-16T15:57:14.796Z,11.00
2022-11-16T15:58:49.410Z,11.00
2022-11-16T16:00:24.910Z,11.00
2022-11-16T16:01:59.843Z,10.90
2022-11-16T16:03:37.225Z,10.90
2022-11-16T16:05:24.003Z,10.90
2022-11-16T16:07:00.606Z,10.80
2022-11-16T16:08:35.900Z,10.80
2022-11-16T16:10:25.573Z,10.80
2022-11-16T16:12:18.401Z,10.70
2022-11-16T16:14:01.117Z,10.70
2022-11-16T16:15:36.738Z,10.70
2022-11-16T16:17:21.989Z,10.70
2022-11-16T16:19:01.516Z,10.60
2022-11-16T16:20:37.793Z,10.60
2022-11-16T16:22:25.388Z,10.60
2022-11-16T16:23:58.554Z,10.50
2022-11-16T16:25:34.685Z,10.50
2022-11-16T16:27:14.847Z,10.50
2022-11-16T16:28:48.393Z,10.50
2022-11-16T16:30:21.795Z,10.40
2022-11-16T16:31:55.616Z,10.40
2022-11-16T16:33:31.156Z,10.40
2022-11-16T16:35:08.774Z,10.40
2022-11-16T16:36:42.027Z,10.40
2022-11-16T16:38:15.349Z,10.30
2022-11-16T16:39:48.858Z,10.30
2022-11-16T16:41:24.513Z,10.30
2022-11-16T16:42:58.791Z,10.30
2022-11-16T16:44:32.014Z,10.30
2022-11-16T16:46:05.795Z,10.30
2022-11-16T16:47:39.106Z,10.20
2022-11-16T16:49:13.684Z,10.20
2022-11-16T16:50:46.830Z,10.20
2022-11-16T16:52:20.223Z,10.20
2022-11-16T16:53:53.580Z,10.20
2022-11-16T16:55:26.925Z,10.20
2022-11-16T16:57:01.337Z,10.10
2022-11-16T16:58:34.497Z,10.10
2022-11-16T17:00:11.509Z,10.10
2022-11-16T17:01:44.793Z,10.10
2022-11-16T17:03:18.173Z,10.10
2022-11-16T17:04:52.945Z,10.00
2022-11-16T17:06:26.428Z,10.00
2022-11-16T17:07:59.749Z,10.00
2022-11-16T17:09:33.164Z,10.00
2022-11-16T17:11:06.952Z,9.90
2022-11-16T17:12:40.464Z,9.90
2022-11-16T17:14:13.847Z,9.90
2022-11-16T17:15:47.233Z,9.90
2022-11-16T17:17:21.385Z,9.90
2022-11-16T17:18:56.652Z,9.90
2022-11-16T17:20:31.130Z,9.90
2022-11-16T17:22:04.296Z,9.80
2022-11-16T17:23:38.806Z,9.80
2022-11-16T17:25:12.276Z,9.80
2022-11-16T17:26:48.344Z,9.80
2022-11-16T17:28:21.621Z,9.80
2022-11-16T17:29:54.793Z,9.80
2022-11-16T17:31:28.835Z,9.70
2022-11-16T17:33:03.196Z,9.70
2022-11-16T17:34:38.075Z,9.70
2022-11-16T17:36:14.479Z,9.70
2022-11-16T17:37:47.832Z,9.70
2022-11-16T17:39:22.340Z,9.60
2022-11-16T17:41:05.169Z,9.60
2022-11-16T17:42:38.428Z,9.60
2022-11-16T17:44:12.710Z,9.60
2022-11-16T17:45:47.998Z,9.50
2022-11-16T17:47:21.266Z,9.50
2022-11-16T17:48:54.650Z,9.50
2022-11-16T17:50:27.898Z,9.40
2022-11-16T17:52:02.444Z,9.40
2022-11-16T17:53:37.108Z,9.40
2022-11-16T17:55:10.735Z,9.30
2022-11-16T17:56:43.997Z,9.30
2022-11-16T17:58:17.218Z,9.30
2022-11-16T17:59:50.487Z,9.30
2022-11-16T18:01:24.495Z,9.30
2022-11-16T18:02:57.705Z,9.20
2022-11-16T18:04:30.976Z,9.20
2022-11-16T18:06:06.585Z,9.10
2022-11-16T18:07:41.168Z,9.10
2022-11-16T18:09:14.425Z,9.10
2022-11-16T18:10:47.726Z,9.00
2022-11-16T18:12:21.087Z,9.00
2022-11-16T18:13:56.208Z,9.00
2022-11-16T18:15:29.952Z,8.90
2022-11-16T18:17:03.188Z,8.90
2022-11-16T18:18:36.677Z,8.90
2022-11-16T18:20:11.673Z,8.90
2022-11-16T18:21:45.964Z,8.80
2022-11-16T18:23:20.658Z,8.80
2022-11-16T18:24:53.710Z,8.80
2022-11-16T18:26:28.535Z,8.70
2022-11-16T18:28:02.736Z,8.70
2022-11-16T18:29:36.772Z,8.70
2022-11-16T18:31:15.217Z,8.60
2022-11-16T18:32:48.937Z,8.60
2022-11-16T18:34:22.283Z,8.60
2022-11-16T18:35:55.506Z,8.50
2022-11-16T18:37:28.632Z,8.50
2022-11-16T18:39:03.059Z,8.50
2022-11-16T18:40:37.259Z,8.40
2022-11-16T18:42:12.535Z,8.40
2022-11-16T18:43:51.717Z,8.40
2022-11-16T18:45:24.869Z,8.40
2022-11-16T18:46:59.073Z,8.30
2022-11-16T18:48:32.569Z,8.30
2022-11-16T18:50:18.071Z,8.20
2022-11-16T18:51:52.355Z,8.20
2022-11-16T18:53:25.631Z,8.20
2022-11-16T18:55:00.109Z,8.20
2022-11-16T18:56:34.927Z,8.20
2022-11-16T18:58:22.773Z,8.10
2022-11-16T19:00:02.297Z,8.10
2022-11-16T19:01:35.509Z,8.00
2022-11-16T19:03:11.398Z,8.00
2022-11-16T19:04:44.775Z,8.00
2022-11-16T19:06:18.272Z,8.00
2022-11-16T19:07:51.523Z,7.90
2022-11-16T19:09:24.711Z,7.90
2022-11-16T19:11:06.213Z,7.90
2022-11-16T19:12:39.488Z,7.80
2022-11-16T19:14:12.860Z,7.80
2022-11-16T19:15:46.242Z,7.80
2022-11-16T19:17:20.901Z,7.70
2022-11-16T19:18:54.833Z,7.70
2022-11-16T19:20:29.719Z,7.70
2022-11-16T19:22:02.885Z,7.60
2022-11-16T19:23:41.080Z,7.60
2022-11-16T19:25:14.494Z,7.60
2022-11-16T19:26:49.263Z,7.50
2022-11-16T19:28:22.567Z,7.50
2022-11-16T19:29:55.829Z,7.50
2022-11-16T19:31:30.495Z,7.50
2022-11-16T19:33:04.010Z,7.40
2022-11-16T19:34:37.241Z,7.40
2022-11-16T19:36:12.738Z,7.30
2022-11-16T19:37:48.695Z,7.30
2022-11-16T19:39:21.875Z,7.30
2022-11-16T19:40:54.997Z,7.20
2022-11-16T19:42:29.539Z,7.20
2022-11-16T19:44:02.900Z,7.20
2022-11-16T19:45:36.135Z,7.20
2022-11-16T19:47:09.254Z,7.10
2022-11-16T19:48:45.662Z,7.10
2022-11-16T19:50:18.952Z,7.10
2022-11-16T19:51:53.190Z,7.10
2022-11-16T19:53:26.394Z,7.10
2022-11-16T19:54:59.643Z,7.00
2022-11-16T19:56:32.955Z,7.00
2022-11-16T19:58:08.416Z,7.00
2022-11-16T19:59:41.628Z,7.00
2022-11-16T20:01:18.085Z,7.00
2022-11-16T20:02:55.934Z,7.00
2022-11-16T20:04:33.533Z,6.90
2022-11-16T20:06:09.970Z,6.90
2022-11-16T20:07:44.549Z,6.90
2022-11-16T20:09:17.805Z,6.80
2022-11-16T20:10:51.646Z,6.80
2022-11-16T20:12:26.218Z,6.80
2022-11-16T20:14:02.057Z,6.80
2022-11-16T20:15:35.402Z,6.80
2022-11-16T20:17:09.114Z,6.80
2022-11-16T20:18:44.193Z,6.80
2022-11-16T20:20:17.692Z,6.70
2022-11-16T20:21:50.995Z,6.70
2022-11-16T20:23:24.575Z,6.70
2022-11-16T20:24:57.749Z,6.70
2022-11-16T20:26:33.774Z,6.70
2022-11-16T20:28:06.953Z,6.60
2022-11-16T20:29:41.413Z,6.70
2022-11-16T20:31:17.404Z,6.60
2022-11-16T20:32:50.633Z,6.60
2022-11-16T20:34:23.773Z,6.60
2022-11-16T20:36:01.694Z,6.60
2022-11-16T20:37:36.624Z,6.60
2022-11-16T20:39:14.796Z,6.50
2022-11-16T20:40:48.007Z,6.50
2022-11-16T20:42:21.206Z,6.50
2022-11-16T20:43:57.514Z,6.50
2022-11-16T20:45:35.200Z,6.50
2022-11-16T20:47:09.514Z,6.40
2022-11-16T20:48:44.504Z,6.40
2022-11-16T20:50:19.341Z,6.40
2022-11-16T20:51:52.526Z,6.50
2022-11-16T20:53:27.041Z,6.40
2022-11-16T20:55:00.201Z,6.40
2022-11-16T20:56:34.212Z,6.40
2022-11-16T20:58:07.336Z,6.40
2022-11-16T20:59:40.466Z,6.40
2022-11-16T21:01:18.038Z,6.40
2022-11-16T21:02:51.220Z,6.40
2022-11-16T21:04:24.542Z,6.40
2022-11-16T21:05:58.382Z,6.40
2022-11-16T21:07:31.536Z,6.40
2022-11-16T21:09:05.317Z,6.40
2022-11-16T21:10:38.849Z,6.50
2022-11-16T21:12:29.033Z,6.50
2022-11-16T21:14:17.181Z,6.50
2022-11-16T21:15:57.911Z,6.50
2022-11-16T21:17:32.541Z,6.50
2022-11-16T21:19:06.286Z,6.50
2022-11-16T21:20:39.375Z,6.50
2022-11-16T21:22:12.868Z,6.50
2022-11-16T21:23:51.491Z,6.60
2022-11-16T21:25:24.675Z,6.60
2022-11-16T21:26:57.873Z,6.60
2022-11-16T21:28:31.086Z,6.60
2022-11-16T21:30:04.652Z,6.60
2022-11-16T21:31:38.142Z,6.70
2022-11-16T21:33:12.631Z,6.70
2022-11-16T21:34:45.774Z,6.70
2022-11-16T21:36:21.289Z,6.70
2022-11-16T21:37:54.492Z,6.80